createdAt,value
2018-10-01T04:32:27.866Z,20.00
2018-10-01T04:34:59.251Z,17.80
2018-10-01T04:37:27.241Z,16.40
2018-10-01T04:39:55.574Z,17.40
2018-10-01T04:42:23.937Z,17.00
2018-10-01T04:44:52.272Z,17.80
2018-10-01T04:47:20.797Z,15.63
2018-10-01T04:49:49.187Z,10.60
2018-10-01T04:52:17.858Z,10.20
2018-10-01T04:54:46.607Z,9.73
2018-10-01T04:57:20.664Z,8.20
2018-10-01T04:59:49.297Z,7.80
2018-10-01T05:02:18.194Z,6.73
2018-10-01T05:04:46.802Z,6.30
2018-10-01T05:07:14.988Z,4.70
2018-10-01T05:09:43.325Z,5.87
2018-10-01T05:12:11.339Z,5.33
2018-10-01T05:14:39.912Z,4.80
2018-10-01T05:17:08.185Z,5.30
2018-10-01T05:19:36.131Z,6.10
2018-10-01T05:22:04.178Z,4.43
2018-10-01T05:24:32.843Z,4.83
2018-10-01T05:27:01.308Z,4.20
2018-10-01T05:29:29.765Z,3.90
2018-10-01T05:31:57.905Z,3.43
2018-10-01T05:34:26.988Z,3.83
2018-10-01T05:36:55.588Z,3.43
2018-10-01T05:39:23.839Z,3.17
2018-10-01T05:41:52.097Z,3.50
2018-10-01T05:44:20.062Z,2.57
2018-10-01T05:46:48.124Z,2.70
2018-10-01T05:49:16.660Z,2.20
2018-10-01T05:51:44.842Z,1.97
2018-10-01T05:54:13.103Z,2.07
2018-10-01T05:56:41.334Z,2.27
2018-10-01T05:59:10.017Z,2.50
2018-10-01T06:01:38.201Z,2.67
2018-10-01T06:04:06.276Z,2.47
2018-10-01T06:06:34.711Z,1.83
2018-10-01T06:09:02.775Z,1.90
2018-10-01T06:11:31.588Z,2.50
2018-10-01T06:13:59.622Z,2.30
2018-10-01T06:16:27.964Z,2.07
2018-10-01T06:18:56.433Z,1.87
2018-10-01T06:21:24.434Z,1.63
2018-10-01T06:23:52.777Z,1.70
2018-10-01T06:26:20.778Z,2.43
2018-10-01T06:28:49.070Z,2.97
2018-10-01T06:31:17.165Z,2.80
2018-10-01T06:33:45.432Z,2.50
2018-10-01T06:36:13.754Z,2.93
2018-10-01T06:38:41.978Z,3.97
2018-10-01T06:41:10.280Z,5.70
2018-10-01T06:43:38.564Z,6.33
2018-10-01T06:46:06.582Z,9.70
2018-10-01T06:48:35.468Z,11.80
2018-10-01T06:51:03.608Z,12.20
2018-10-01T06:53:32.147Z,14.33
2018-10-01T06:56:00.265Z,14.27
2018-10-01T06:58:28.368Z,14.73
2018-10-01T07:00:56.415Z,14.27
2018-10-01T07:03:24.531Z,12.90
2018-10-01T07:05:52.656Z,14.30
2018-10-01T07:08:20.745Z,16.20
2018-10-01T07:10:49.074Z,17.50
2018-10-01T07:13:17.373Z,16.03
2018-10-01T07:15:45.591Z,17.00
2018-10-01T07:18:13.861Z,17.17
2018-10-01T07:20:42.201Z,17.47
2018-10-01T07:23:10.870Z,17.87
2018-10-01T07:25:38.669Z,16.47
2018-10-01T07:28:06.679Z,16.30
2018-10-01T07:30:34.625Z,15.67
2018-10-01T07:33:02.643Z,18.00
2018-10-01T07:35:30.618Z,16.10
2018-10-01T07:37:58.597Z,14.70
2018-10-01T07:40:26.601Z,13.73
2018-10-01T07:42:54.589Z,13.57
2018-10-01T07:45:22.891Z,11.70
2018-10-01T07:47:50.860Z,10.60
2018-10-01T07:50:19.167Z,11.17
2018-10-01T07:52:47.188Z,10.20
2018-10-01T07:55:15.259Z,11.93
2018-10-01T07:57:44.084Z,10.50
2018-10-01T08:00:12.109Z,11.13
2018-10-01T08:02:40.147Z,10.80
2018-10-01T08:05:08.022Z,8.63
2018-10-01T08:07:36.057Z,10.30
2018-10-01T08:10:04.109Z,10.30
2018-10-01T08:12:32.149Z,10.40
2018-10-01T08:15:00.187Z,10.03
2018-10-01T08:17:28.551Z,9.47
2018-10-01T08:19:56.922Z,10.50
2018-10-01T08:22:24.924Z,10.07
2018-10-01T08:24:52.943Z,9.60
2018-10-01T08:27:20.951Z,8.97
2018-10-01T08:29:49.697Z,8.43
2018-10-01T08:32:17.662Z,9.20
2018-10-01T08:34:45.586Z,9.57
2018-10-01T08:37:13.583Z,9.60
2018-10-01T08:39:41.589Z,9.40
2018-10-01T08:42:09.572Z,8.73
2018-10-01T08:44:37.695Z,9.00
2018-10-01T08:47:05.731Z,9.77
2018-10-01T08:49:39.135Z,10.43
2018-10-01T08:52:12.185Z,11.80
2018-10-01T08:54:42.605Z,9.50
2018-10-01T08:57:10.804Z,9.60
2018-10-01T08:59:38.926Z,10.20
2018-10-01T09:02:06.937Z,10.90
2018-10-01T09:04:34.950Z,11.70
2018-10-01T09:07:03.457Z,12.00
2018-10-01T09:09:32.021Z,11.60
2018-10-01T09:12:00.095Z,11.60
2018-10-01T09:14:28.161Z,14.60
2018-10-01T09:16:56.208Z,13.47
2018-10-01T09:19:24.222Z,13.93
2018-10-01T09:21:52.513Z,14.17
2018-10-01T09:24:20.797Z,17.07
2018-10-01T09:26:49.428Z,15.47
2018-10-01T09:29:17.690Z,18.23
2018-10-01T09:31:45.989Z,18.43
2018-10-01T09:34:17.511Z,18.27
2018-10-01T09:36:45.550Z,18.97
2018-10-01T09:39:13.615Z,20.90
2018-10-01T09:41:41.936Z,20.13
2018-10-01T09:44:10.016Z,22.37
2018-10-01T09:46:38.107Z,23.03
2018-10-01T09:49:06.098Z,23.30
2018-10-01T09:51:35.138Z,24.97
2018-10-01T09:54:03.370Z,23.70
2018-10-01T09:56:31.929Z,24.87
2018-10-01T09:58:59.928Z,23.13
2018-10-01T10:01:28.004Z,25.40
2018-10-01T10:03:56.103Z,25.00
2018-10-01T10:06:24.732Z,24.80
2018-10-01T10:08:52.759Z,23.93
2018-10-01T10:11:20.836Z,23.03
2018-10-01T10:13:48.881Z,25.73
2018-10-01T10:16:17.010Z,22.53
2018-10-01T10:18:44.970Z,24.30
2018-10-01T10:21:13.021Z,20.97
2018-10-01T10:23:41.073Z,20.50
2018-10-01T10:26:09.411Z,21.80
2018-10-01T10:28:37.509Z,20.03
2018-10-01T10:31:05.800Z,21.07
2018-10-01T10:33:33.872Z,19.27
2018-10-01T10:36:02.099Z,20.80
2018-10-01T10:38:30.323Z,21.43
2018-10-01T10:40:58.648Z,20.87
2018-10-01T10:43:26.680Z,22.60
2018-10-01T10:45:54.705Z,19.80
2018-10-01T10:48:22.730Z,22.37
2018-10-01T10:50:50.737Z,21.07
2018-10-01T10:53:18.983Z,20.90
2018-10-01T10:55:47.006Z,22.53
2018-10-01T10:58:15.288Z,22.90
2018-10-01T11:00:43.275Z,24.20
2018-10-01T11:03:11.332Z,22.20
2018-10-01T11:05:39.309Z,25.20
2018-10-01T11:08:07.320Z,23.97
2018-10-01T11:10:35.337Z,23.87
2018-10-01T11:13:03.320Z,24.90
2018-10-01T11:15:31.651Z,24.40
2018-10-01T11:17:59.685Z,23.27
2018-10-01T11:20:28.002Z,24.60
2018-10-01T11:22:55.969Z,24.30
2018-10-01T11:25:24.004Z,25.17
2018-10-01T11:27:52.002Z,24.60
2018-10-01T11:30:19.945Z,25.07
2018-10-01T11:32:47.950Z,24.10
2018-10-01T11:35:16.327Z,26.00
2018-10-01T11:37:44.132Z,24.37
2018-10-01T11:40:12.146Z,26.50
2018-10-01T11:42:40.165Z,27.37
2018-10-01T11:45:08.256Z,26.50
2018-10-01T11:47:36.178Z,26.73
2018-10-01T11:50:04.161Z,26.40
2018-10-01T11:52:32.133Z,26.10
2018-10-01T11:55:00.132Z,25.97
2018-10-01T11:57:28.195Z,26.07
2018-10-01T11:59:56.106Z,25.40
2018-10-01T12:02:24.092Z,25.93
2018-10-01T12:04:52.095Z,23.93
2018-10-01T12:07:20.110Z,23.10
2018-10-01T12:09:48.276Z,25.63
2018-10-01T12:12:16.118Z,24.67
2018-10-01T12:14:44.343Z,24.50
2018-10-01T12:17:12.355Z,26.33
2018-10-01T12:19:40.342Z,26.33
2018-10-01T12:22:08.374Z,26.20
2018-10-01T12:24:36.337Z,25.60
2018-10-01T12:27:04.398Z,28.50
2018-10-01T12:29:32.588Z,27.53
2018-10-01T12:32:00.656Z,26.60
2018-10-01T12:34:28.665Z,27.90
2018-10-01T12:36:57.042Z,28.17
2018-10-01T12:39:25.072Z,29.20
2018-10-01T12:41:53.097Z,30.10
2018-10-01T12:44:21.127Z,31.00
2018-10-01T12:46:49.145Z,31.87
2018-10-01T12:49:17.400Z,28.83
2018-10-01T12:51:45.731Z,30.07
2018-10-01T12:54:13.729Z,30.80
2018-10-01T12:56:42.108Z,30.90
2018-10-01T12:59:10.434Z,30.37
2018-10-01T13:01:38.778Z,31.10
2018-10-01T13:04:06.836Z,31.33
2018-10-01T13:06:35.159Z,31.10
2018-10-01T13:09:03.369Z,32.90
2018-10-01T13:11:31.392Z,33.37
2018-10-01T13:13:59.422Z,34.20
2018-10-01T13:16:27.415Z,33.10
2018-10-01T13:18:55.656Z,32.63
2018-10-01T13:21:23.673Z,32.40
2018-10-01T13:23:51.668Z,33.70
2018-10-01T13:26:19.823Z,33.00
2018-10-01T13:28:47.852Z,35.23
2018-10-01T13:31:15.909Z,31.23
2018-10-01T13:33:44.243Z,31.73
2018-10-01T13:36:12.391Z,35.50
2018-10-01T13:38:40.666Z,35.27
2018-10-01T13:41:08.704Z,33.10
2018-10-01T13:43:36.706Z,33.60
2018-10-01T13:46:04.977Z,34.20
2018-10-01T13:48:33.335Z,36.80
2018-10-01T13:51:01.331Z,36.60
2018-10-01T13:53:29.381Z,37.33
2018-10-01T13:55:57.416Z,35.00
2018-10-01T13:58:25.501Z,33.80
2018-10-01T14:00:53.481Z,34.77
2018-10-01T14:03:21.738Z,33.50
2018-10-01T14:05:50.359Z,31.33
2018-10-01T14:08:18.418Z,31.97
2018-10-01T14:10:46.433Z,32.73
2018-10-01T14:13:14.605Z,34.70
2018-10-01T14:15:42.524Z,32.40
2018-10-01T14:18:10.886Z,34.83
2018-10-01T14:20:38.894Z,33.10
2018-10-01T14:23:06.904Z,36.10
2018-10-01T14:25:35.079Z,37.00
2018-10-01T14:28:03.062Z,34.70
2018-10-01T14:30:31.222Z,34.50
2018-10-01T14:32:59.215Z,40.70
2018-10-01T14:35:27.244Z,33.97
2018-10-01T14:37:55.702Z,34.37
2018-10-01T14:40:23.701Z,33.37
2018-10-01T14:42:51.736Z,34.30
2018-10-01T14:45:19.861Z,32.90
2018-10-01T14:47:48.181Z,35.23
2018-10-01T14:50:16.278Z,35.40
2018-10-01T14:52:44.380Z,36.10
2018-10-01T14:55:12.592Z,34.87
2018-10-01T14:57:41.188Z,34.23
2018-10-01T15:00:09.314Z,35.50
2018-10-01T15:02:37.294Z,36.67
2018-10-01T15:05:05.942Z,34.23
2018-10-01T15:07:34.064Z,33.87
2018-10-01T15:10:02.143Z,35.70
2018-10-01T15:12:30.158Z,35.27
2018-10-01T15:14:59.121Z,36.03
2018-10-01T15:17:27.501Z,36.20
2018-10-01T15:19:56.721Z,37.30
2018-10-01T15:22:24.826Z,35.97
2018-10-01T15:24:52.787Z,36.20
2018-10-01T15:27:21.191Z,37.47
2018-10-01T15:29:49.287Z,37.23
2018-10-01T15:32:17.702Z,40.37
2018-10-01T15:34:46.490Z,39.87
2018-10-01T15:37:14.788Z,38.30
2018-10-01T15:39:42.756Z,41.50
2018-10-01T15:42:10.875Z,37.97
2018-10-01T15:44:38.874Z,39.83
2018-10-01T15:47:07.334Z,40.37
2018-10-01T15:49:35.802Z,40.20
2018-10-01T15:52:03.932Z,38.20
2018-10-01T15:54:32.266Z,37.57
2018-10-01T15:57:00.579Z,38.73
2018-10-01T15:59:28.689Z,38.20
2018-10-01T16:01:56.741Z,40.17
2018-10-01T16:04:24.789Z,36.67
2018-10-01T16:06:53.702Z,39.47
2018-10-01T16:09:21.844Z,38.87
2018-10-01T16:11:50.015Z,37.50
2018-10-01T16:14:18.620Z,36.50
2018-10-01T16:16:46.765Z,37.37
2018-10-01T16:19:14.913Z,37.03
2018-10-01T16:21:42.928Z,38.20
2018-10-01T16:26:47.211Z,38.47
2018-10-01T16:29:15.577Z,38.47
2018-10-01T16:31:43.872Z,35.90
2018-10-01T16:34:11.915Z,35.07
2018-10-01T16:36:40.336Z,34.50
2018-10-01T16:39:09.724Z,32.77
2018-10-01T16:41:38.008Z,33.80
2018-10-01T16:46:41.423Z,32.97
2018-10-01T16:49:10.288Z,32.17
2018-10-01T16:51:42.395Z,33.47
2018-10-01T16:54:11.156Z,31.27
2018-10-01T16:56:40.165Z,34.37
2018-10-01T16:59:09.125Z,35.40
2018-10-01T17:01:37.486Z,37.13
2018-10-01T17:04:05.514Z,34.90
2018-10-01T17:06:33.893Z,40.50
2018-10-01T17:09:02.707Z,47.73
2018-10-01T17:11:31.192Z,64.30
2018-10-01T17:14:00.400Z,54.10
2018-10-01T17:16:28.705Z,43.40
2018-10-01T17:18:56.730Z,49.70
2018-10-01T17:21:24.800Z,42.20
2018-10-01T17:29:40.281Z,40.93
2018-10-01T17:32:08.301Z,36.17
2018-10-01T17:34:36.308Z,35.57
2018-10-01T17:37:04.318Z,33.97
2018-10-01T17:39:32.927Z,34.33
2018-10-01T17:42:00.954Z,30.73
2018-10-01T17:44:28.941Z,28.50
2018-10-01T17:46:57.253Z,33.13
2018-10-01T17:49:25.217Z,35.87
2018-10-01T17:51:53.246Z,34.53
2018-10-01T17:54:21.296Z,34.30
2018-10-01T17:56:49.235Z,38.80
2018-10-01T17:59:17.217Z,37.30
2018-10-01T18:01:45.263Z,41.40
2018-10-01T18:04:13.511Z,40.40
2018-10-01T18:06:41.441Z,39.60
2018-10-01T18:09:10.402Z,40.67
2018-10-01T18:11:38.404Z,37.83
2018-10-01T18:14:06.729Z,33.07
2018-10-01T18:16:34.739Z,32.20
2018-10-01T18:19:02.746Z,35.20
2018-10-01T18:21:30.848Z,34.17
2018-10-01T18:23:59.161Z,37.00
2018-10-01T18:26:27.128Z,35.60
2018-10-01T18:28:55.485Z,37.53
2018-10-01T18:31:23.476Z,38.30
2018-10-01T18:33:51.478Z,37.53
2018-10-01T18:36:19.585Z,39.07
2018-10-01T18:38:47.489Z,45.80
2018-10-01T18:41:15.475Z,43.00
2018-10-01T18:43:43.616Z,42.10
2018-10-01T18:46:11.489Z,38.87
2018-10-01T18:48:39.489Z,39.67
2018-10-01T18:51:07.431Z,40.47
2018-10-01T18:53:35.746Z,41.23
2018-10-01T18:56:03.729Z,36.77
2018-10-01T18:58:32.333Z,38.43
2018-10-01T19:01:00.316Z,37.77
2018-10-01T19:03:28.448Z,37.50
2018-10-01T19:05:56.475Z,37.77
2018-10-01T19:08:24.437Z,36.80
2018-10-01T19:10:52.442Z,37.13
2018-10-01T19:13:20.464Z,35.20
2018-10-01T19:15:48.471Z,37.47
2018-10-01T19:18:16.545Z,33.13
2018-10-01T19:20:44.622Z,34.43
2018-10-01T19:23:12.629Z,34.73
2018-10-01T19:25:40.645Z,34.40
2018-10-01T19:28:08.658Z,34.60
2018-10-01T19:30:36.952Z,33.23
2018-10-01T19:33:05.091Z,34.90
2018-10-01T19:35:33.089Z,33.60
2018-10-01T19:38:01.019Z,32.50
2018-10-01T19:40:29.019Z,35.07
2018-10-01T19:42:57.059Z,34.50
2018-10-01T19:45:25.043Z,34.70
2018-10-01T19:47:53.077Z,31.53
2018-10-01T19:50:21.120Z,33.10
2018-10-01T19:52:49.185Z,32.33
2018-10-01T19:55:17.200Z,32.60
2018-10-01T19:57:45.237Z,32.70
2018-10-01T20:00:13.713Z,34.67
2018-10-01T20:02:41.690Z,35.53
2018-10-01T20:05:10.765Z,32.40
2018-10-01T20:10:35.088Z,33.63
2018-10-01T20:13:03.216Z,31.00
2018-10-01T20:15:31.461Z,32.73
2018-10-01T20:17:59.539Z,31.07
2018-10-01T20:20:27.634Z,30.00
2018-10-01T20:22:55.690Z,32.13
2018-10-01T20:25:23.848Z,33.23
2018-10-01T20:27:52.073Z,32.30
2018-10-01T20:30:20.062Z,31.63
2018-10-01T20:32:47.983Z,30.17
2018-10-01T20:35:16.331Z,18.93
2018-10-01T20:37:44.310Z,19.13
2018-10-01T20:40:12.311Z,23.07
2018-10-01T20:42:40.308Z,24.17
2018-10-01T20:45:08.293Z,24.13
2018-10-01T20:47:36.347Z,27.23
2018-10-01T20:50:04.490Z,27.13
2018-10-01T20:52:32.473Z,26.97
2018-10-01T20:55:00.408Z,28.00
2018-10-01T20:57:28.442Z,26.60
2018-10-01T20:59:56.481Z,26.80
2018-10-01T21:02:24.564Z,26.97
2018-10-01T21:04:52.552Z,24.70
2018-10-01T21:07:20.542Z,25.50
2018-10-01T21:09:48.710Z,23.67
2018-10-01T21:12:16.747Z,25.73
2018-10-01T21:14:45.287Z,23.93
2018-10-01T21:17:13.512Z,24.00
2018-10-01T21:19:41.497Z,23.50
2018-10-01T21:22:09.533Z,23.90
2018-10-01T21:24:37.540Z,22.00
2018-10-01T21:27:05.881Z,21.90
2018-10-01T21:29:33.863Z,22.57
2018-10-01T21:32:01.883Z,21.47
2018-10-01T21:34:29.904Z,22.20
2018-10-01T21:36:57.990Z,20.83
2018-10-01T21:39:32.184Z,21.30
2018-10-01T21:42:00.221Z,19.73
2018-10-01T21:44:28.279Z,22.27
2018-10-01T21:46:56.878Z,20.37
2018-10-01T21:49:24.873Z,20.10
2018-10-01T21:51:52.875Z,20.00
2018-10-01T21:54:20.854Z,20.60
2018-10-01T21:56:48.880Z,23.83
2018-10-01T21:59:16.897Z,23.37
